MXY328 KCHS-KBDL
Flight info
| Callsign | MXY328 |
|---|---|
| Flight time | 1h 42m |
| Altitude | 35000 |
| Route | PLMTO3 CRE ELLDE Q97 PAACK JAMIE CONFR Q481 DPK DPK3 |
| Aircraft | E190/M-SDE3GILORVW/S |
Departure
| Time | 2026-04-25 01:19 |
|---|---|
| Airport | Charleston International Airport (KCHS) |
Arrival
| Time | 2026-04-25 03:01 |
|---|---|
| Airport | Bradley International Airport (KBDL) |
| Time | Latitude | Longitude | Altitude | Speed | Heading |
|---|---|---|---|---|---|
| 2026-04-25 00:44 | 32.88539 | -80.03645 | 40 ft | 0 kts | 160° |
| 2026-04-25 01:07 | 32.88560 | -80.03657 | 40 ft | 4 kts | 137° |
| 2026-04-25 01:07 | 32.88572 | -80.03675 | 40 ft | 4 kts | 56° |
| 2026-04-25 01:07 | 32.88565 | -80.03682 | 40 ft | 1 kts | 19° |
| 2026-04-25 01:08 | 32.88564 | -80.03683 | 39 ft | 0 kts | 19° |
| 2026-04-25 01:10 | 32.88573 | -80.03679 | 38 ft | 4 kts | 19° |
| 2026-04-25 01:10 | 32.88608 | -80.03668 | 40 ft | 7 kts | 11° |
| 2026-04-25 01:10 | 32.88665 | -80.03658 | 39 ft | 10 kts | 8° |
| 2026-04-25 01:10 | 32.88681 | -80.03655 | 40 ft | 0 kts | 7° |
| 2026-04-25 01:14 | 32.88695 | -80.03653 | 40 ft | 4 kts | 8° |
| 2026-04-25 01:14 | 32.88755 | -80.03642 | 40 ft | 14 kts | 8° |
| 2026-04-25 01:14 | 32.88858 | -80.03625 | 40 ft | 16 kts | 8° |
| 2026-04-25 01:14 | 32.88974 | -80.03607 | 40 ft | 19 kts | 7° |
| 2026-04-25 01:15 | 32.89110 | -80.03596 | 39 ft | 20 kts | 0° |
| 2026-04-25 01:15 | 32.89261 | -80.03593 | 40 ft | 23 kts | 1° |
| 2026-04-25 01:15 | 32.89428 | -80.03588 | 39 ft | 25 kts | 1° |
| 2026-04-25 01:15 | 32.89608 | -80.03584 | 37 ft | 28 kts | 1° |
| 2026-04-25 01:16 | 32.89809 | -80.03579 | 38 ft | 29 kts | 1° |
| 2026-04-25 01:16 | 32.90000 | -80.03530 | 38 ft | 27 kts | 22° |
| 2026-04-25 01:16 | 32.90138 | -80.03466 | 40 ft | 15 kts | 358° |
| 2026-04-25 01:16 | 32.90193 | -80.03532 | 40 ft | 0 kts | 294° |
| 2026-04-25 01:17 | 32.90193 | -80.03534 | 39 ft | 3 kts | 294° |
| 2026-04-25 01:18 | 32.90215 | -80.03593 | 40 ft | 9 kts | 291° |
| 2026-04-25 01:18 | 32.90197 | -80.03638 | 42 ft | 5 kts | 205° |
| 2026-04-25 01:18 | 32.90180 | -80.03648 | 40 ft | 15 kts | 204° |
| 2026-04-25 01:18 | 32.89875 | -80.03810 | 38 ft | 85 kts | 205° |
| 2026-04-25 01:19 | 32.89118 | -80.04213 | 45 ft | 151 kts | 204° |
| 2026-04-25 01:19 | 32.88053 | -80.04754 | 525 ft | 179 kts | 200° |
| 2026-04-25 01:19 | 32.86763 | -80.05077 | 1274 ft | 199 kts | 181° |
| 2026-04-25 01:19 | 32.85367 | -80.04680 | 1987 ft | 219 kts | 152° |
| 2026-04-25 01:20 | 32.84172 | -80.03440 | 2844 ft | 237 kts | 128° |
| 2026-04-25 01:20 | 32.83460 | -80.01583 | 3631 ft | 264 kts | 101° |
| 2026-04-25 01:20 | 32.83609 | -79.99340 | 4169 ft | 283 kts | 72° |
| 2026-04-25 01:20 | 32.84652 | -79.97340 | 4173 ft | 285 kts | 49° |
| 2026-04-25 01:21 | 32.85977 | -79.95610 | 4598 ft | 287 kts | 49° |
| 2026-04-25 01:21 | 32.87269 | -79.93767 | 5655 ft | 293 kts | 51° |
| 2026-04-25 01:21 | 32.88554 | -79.91885 | 6779 ft | 293 kts | 49° |
| 2026-04-25 01:21 | 32.89847 | -79.90043 | 7826 ft | 295 kts | 49° |
| 2026-04-25 01:22 | 32.91189 | -79.88181 | 8889 ft | 297 kts | 47° |
| 2026-04-25 01:22 | 32.92587 | -79.86357 | 9961 ft | 299 kts | 49° |
| 2026-04-25 01:22 | 32.93892 | -79.84368 | 10713 ft | 314 kts | 53° |
| 2026-04-25 01:22 | 32.95180 | -79.82224 | 11450 ft | 323 kts | 53° |
| 2026-04-25 01:23 | 32.96515 | -79.80026 | 12223 ft | 331 kts | 53° |
| 2026-04-25 01:23 | 32.97874 | -79.77788 | 13048 ft | 337 kts | 53° |
| 2026-04-25 01:23 | 32.99265 | -79.75507 | 13889 ft | 343 kts | 53° |
| 2026-04-25 01:23 | 33.00678 | -79.73193 | 14743 ft | 349 kts | 53° |
| 2026-04-25 01:24 | 33.02096 | -79.70817 | 15625 ft | 355 kts | 55° |
| 2026-04-25 01:24 | 33.03429 | -79.68316 | 16465 ft | 360 kts | 56° |
| 2026-04-25 01:24 | 33.04786 | -79.65782 | 17268 ft | 365 kts | 56° |
| 2026-04-25 01:24 | 33.06168 | -79.63217 | 17991 ft | 370 kts | 56° |
| 2026-04-25 01:25 | 33.07569 | -79.60621 | 18719 ft | 375 kts | 56° |
| 2026-04-25 01:25 | 33.08987 | -79.57991 | 19451 ft | 379 kts | 56° |
| 2026-04-25 01:25 | 33.10424 | -79.55333 | 20187 ft | 383 kts | 56° |
| 2026-04-25 01:25 | 33.11876 | -79.52646 | 20896 ft | 388 kts | 56° |
| 2026-04-25 01:26 | 33.13343 | -79.49931 | 21582 ft | 391 kts | 56° |
| 2026-04-25 01:26 | 33.14824 | -79.47189 | 22204 ft | 395 kts | 56° |
| 2026-04-25 01:26 | 33.16318 | -79.44418 | 22801 ft | 399 kts | 56° |
| 2026-04-25 01:26 | 33.17826 | -79.41621 | 23369 ft | 402 kts | 56° |
| 2026-04-25 01:27 | 33.19346 | -79.38805 | 23909 ft | 405 kts | 54° |
| 2026-04-25 01:27 | 33.21165 | -79.36188 | 24085 ft | 416 kts | 41° |
| 2026-04-25 01:27 | 33.23364 | -79.33896 | 24403 ft | 423 kts | 39° |
| 2026-04-25 01:28 | 33.27842 | -79.29243 | 25383 ft | 429 kts | 39° |
| 2026-04-25 01:28 | 33.30091 | -79.26884 | 25883 ft | 432 kts | 39° |
| 2026-04-25 01:28 | 33.32353 | -79.24507 | 26353 ft | 434 kts | 39° |
| 2026-04-25 01:28 | 33.34625 | -79.22114 | 26774 ft | 437 kts | 39° |
| 2026-04-25 01:29 | 33.36912 | -79.19704 | 27196 ft | 439 kts | 40° |
| 2026-04-25 01:29 | 33.39207 | -79.17281 | 27610 ft | 442 kts | 40° |
| 2026-04-25 01:29 | 33.41517 | -79.14842 | 28002 ft | 444 kts | 40° |
| 2026-04-25 01:29 | 33.43836 | -79.12389 | 28377 ft | 446 kts | 40° |
| 2026-04-25 01:30 | 33.46167 | -79.09924 | 28719 ft | 448 kts | 40° |
| 2026-04-25 01:30 | 33.48506 | -79.07448 | 29080 ft | 449 kts | 40° |
| 2026-04-25 01:30 | 33.50812 | -79.05004 | 29540 ft | 447 kts | 40° |
| 2026-04-25 01:30 | 33.53136 | -79.02538 | 30001 ft | 446 kts | 40° |
| 2026-04-25 01:31 | 33.55454 | -79.00081 | 30435 ft | 445 kts | 40° |
| 2026-04-25 01:31 | 33.57768 | -78.97624 | 30821 ft | 445 kts | 40° |
| 2026-04-25 01:31 | 33.60084 | -78.95164 | 31175 ft | 445 kts | 40° |
| 2026-04-25 01:31 | 33.62403 | -78.92701 | 31530 ft | 446 kts | 40° |
| 2026-04-25 01:32 | 33.64721 | -78.90237 | 31895 ft | 445 kts | 40° |
| 2026-04-25 01:32 | 33.67041 | -78.87770 | 32233 ft | 446 kts | 40° |
| 2026-04-25 01:32 | 33.69365 | -78.85298 | 32552 ft | 446 kts | 40° |
| 2026-04-25 01:32 | 33.71686 | -78.82827 | 32876 ft | 446 kts | 40° |
| 2026-04-25 01:33 | 33.74006 | -78.80353 | 33169 ft | 446 kts | 40° |
| 2026-04-25 01:33 | 33.76330 | -78.77874 | 33460 ft | 446 kts | 40° |
| 2026-04-25 01:33 | 33.78653 | -78.75401 | 33731 ft | 446 kts | 39° |
| 2026-04-25 01:33 | 33.81199 | -78.73300 | 33936 ft | 444 kts | 23° |
| 2026-04-25 01:34 | 33.84120 | -78.72213 | 34168 ft | 438 kts | 5° |
| 2026-04-25 01:34 | 33.87142 | -78.71967 | 34474 ft | 434 kts | 360° |
| 2026-04-25 01:34 | 33.90163 | -78.71843 | 34736 ft | 434 kts | 359° |
| 2026-04-25 01:34 | 33.93129 | -78.71724 | 35081 ft | 431 kts | 359° |
| 2026-04-25 01:35 | 33.99208 | -78.71487 | 35053 ft | 443 kts | 359° |
| 2026-04-25 01:35 | 34.02308 | -78.71371 | 34942 ft | 448 kts | 359° |
| 2026-04-25 01:35 | 34.05416 | -78.71254 | 34940 ft | 446 kts | 359° |
| 2026-04-25 01:36 | 34.11637 | -78.71004 | 34927 ft | 448 kts | 359° |
| 2026-04-25 01:36 | 34.17870 | -78.70757 | 34934 ft | 449 kts | 359° |
| 2026-04-25 01:37 | 34.24109 | -78.70506 | 34929 ft | 448 kts | 359° |
| 2026-04-25 01:37 | 34.30341 | -78.70256 | 34931 ft | 448 kts | 359° |
| 2026-04-25 01:38 | 34.36570 | -78.70008 | 34931 ft | 448 kts | 360° |
| 2026-04-25 01:38 | 34.39661 | -78.69479 | 34948 ft | 452 kts | 14° |
| 2026-04-25 01:38 | 34.42527 | -78.67883 | 34952 ft | 459 kts | 32° |
| 2026-04-25 01:39 | 34.46783 | -78.64011 | 34911 ft | 461 kts | 35° |
| 2026-04-25 01:39 | 34.51852 | -78.59284 | 34908 ft | 459 kts | 35° |
| 2026-04-25 01:40 | 34.56923 | -78.54565 | 34916 ft | 459 kts | 35° |
| 2026-04-25 01:40 | 34.61997 | -78.49844 | 34913 ft | 459 kts | 35° |
| 2026-04-25 01:41 | 34.67066 | -78.45121 | 34911 ft | 459 kts | 35° |
| 2026-04-25 01:41 | 34.72129 | -78.40398 | 34913 ft | 459 kts | 35° |
| 2026-04-25 01:42 | 34.77184 | -78.35676 | 34915 ft | 458 kts | 35° |
| 2026-04-25 01:42 | 34.82235 | -78.30948 | 34912 ft | 458 kts | 35° |
| 2026-04-25 01:43 | 34.87281 | -78.26220 | 34898 ft | 457 kts | 35° |
| 2026-04-25 01:43 | 34.92282 | -78.21524 | 34897 ft | 457 kts | 35° |
| 2026-04-25 01:44 | 34.97309 | -78.16792 | 34908 ft | 457 kts | 35° |
| 2026-04-25 01:44 | 35.02334 | -78.12062 | 34907 ft | 456 kts | 35° |
| 2026-04-25 01:45 | 35.07349 | -78.07334 | 34908 ft | 455 kts | 35° |
| 2026-04-25 01:45 | 35.12359 | -78.02602 | 34891 ft | 455 kts | 35° |
| 2026-04-25 01:46 | 35.17356 | -77.97874 | 34898 ft | 454 kts | 35° |
| 2026-04-25 01:46 | 35.22345 | -77.93145 | 34899 ft | 453 kts | 35° |
| 2026-04-25 01:47 | 35.27331 | -77.88413 | 34892 ft | 453 kts | 35° |
| 2026-04-25 01:47 | 35.32310 | -77.83680 | 34889 ft | 453 kts | 35° |
| 2026-04-25 01:48 | 35.37250 | -77.78975 | 34889 ft | 453 kts | 35° |
| 2026-04-25 01:48 | 35.42219 | -77.74237 | 34890 ft | 452 kts | 35° |
| 2026-04-25 01:49 | 35.47179 | -77.69497 | 34890 ft | 452 kts | 35° |
| 2026-04-25 01:49 | 35.52139 | -77.64751 | 34890 ft | 452 kts | 35° |
| 2026-04-25 01:50 | 35.57095 | -77.60007 | 34882 ft | 451 kts | 34° |
| 2026-04-25 01:50 | 35.62062 | -77.55281 | 34878 ft | 452 kts | 34° |
| 2026-04-25 01:51 | 35.67028 | -77.50551 | 34881 ft | 452 kts | 34° |
| 2026-04-25 01:51 | 35.71992 | -77.45812 | 34879 ft | 451 kts | 35° |
| 2026-04-25 01:52 | 35.76953 | -77.41069 | 34880 ft | 452 kts | 34° |
| 2026-04-25 01:52 | 35.81914 | -77.36321 | 34893 ft | 451 kts | 34° |
| 2026-04-25 01:53 | 35.86875 | -77.31561 | 34889 ft | 452 kts | 34° |
| 2026-04-25 01:53 | 35.91834 | -77.26794 | 34888 ft | 452 kts | 34° |
| 2026-04-25 01:54 | 35.97091 | -77.22615 | 34896 ft | 450 kts | 28° |
| 2026-04-25 01:54 | 36.02402 | -77.18639 | 34887 ft | 448 kts | 27° |
| 2026-04-25 01:55 | 36.07708 | -77.14648 | 34897 ft | 446 kts | 27° |
| 2026-04-25 01:55 | 36.13007 | -77.10655 | 34898 ft | 446 kts | 27° |
| 2026-04-25 01:56 | 36.18309 | -77.06652 | 34898 ft | 446 kts | 27° |
| 2026-04-25 01:56 | 36.23611 | -77.02640 | 34898 ft | 446 kts | 27° |
| 2026-04-25 01:57 | 36.31557 | -76.96617 | 34899 ft | 446 kts | 27° |
| 2026-04-25 01:58 | 36.36855 | -76.92593 | 34898 ft | 446 kts | 27° |
| 2026-04-25 01:58 | 36.42144 | -76.88569 | 34910 ft | 447 kts | 27° |
| 2026-04-25 01:59 | 36.47445 | -76.84527 | 34895 ft | 447 kts | 27° |
| 2026-04-25 01:59 | 36.52737 | -76.80488 | 34911 ft | 446 kts | 27° |
| 2026-04-25 02:00 | 36.58030 | -76.76440 | 34908 ft | 447 kts | 27° |
| 2026-04-25 02:00 | 36.63285 | -76.72415 | 34900 ft | 446 kts | 27° |
| 2026-04-25 02:01 | 36.68569 | -76.68358 | 34897 ft | 446 kts | 27° |
| 2026-04-25 02:01 | 36.73849 | -76.64303 | 34898 ft | 446 kts | 27° |
| 2026-04-25 02:02 | 36.79130 | -76.60239 | 34909 ft | 446 kts | 27° |
| 2026-04-25 02:02 | 36.84409 | -76.56170 | 34906 ft | 446 kts | 27° |
| 2026-04-25 02:03 | 36.89682 | -76.52098 | 34906 ft | 445 kts | 27° |
| 2026-04-25 02:03 | 36.94943 | -76.48030 | 34909 ft | 445 kts | 27° |
| 2026-04-25 02:04 | 37.00205 | -76.43952 | 34908 ft | 445 kts | 27° |
| 2026-04-25 02:04 | 37.05458 | -76.39876 | 34897 ft | 444 kts | 27° |
| 2026-04-25 02:05 | 37.10705 | -76.35799 | 34887 ft | 444 kts | 26° |
| 2026-04-25 02:05 | 37.15943 | -76.31720 | 34883 ft | 443 kts | 26° |
| 2026-04-25 02:06 | 37.21141 | -76.27670 | 34891 ft | 443 kts | 26° |
| 2026-04-25 02:06 | 37.26371 | -76.23583 | 34895 ft | 442 kts | 26° |
| 2026-04-25 02:07 | 37.31588 | -76.19503 | 34899 ft | 442 kts | 26° |
| 2026-04-25 02:07 | 37.36802 | -76.15416 | 34904 ft | 442 kts | 26° |
| 2026-04-25 02:08 | 37.42009 | -76.11325 | 34909 ft | 441 kts | 26° |
| 2026-04-25 02:08 | 37.47204 | -76.07238 | 34909 ft | 440 kts | 26° |
| 2026-04-25 02:09 | 37.52392 | -76.03156 | 34912 ft | 439 kts | 26° |
| 2026-04-25 02:09 | 37.57579 | -75.99071 | 34917 ft | 440 kts | 25° |
| 2026-04-25 02:10 | 37.62746 | -75.94957 | 34925 ft | 440 kts | 27° |
| 2026-04-25 02:10 | 37.67849 | -75.90661 | 34916 ft | 440 kts | 27° |
| 2026-04-25 02:11 | 37.72948 | -75.86382 | 34915 ft | 440 kts | 27° |
| 2026-04-25 02:11 | 37.78051 | -75.82103 | 34917 ft | 440 kts | 27° |
| 2026-04-25 02:12 | 37.83119 | -75.77850 | 34918 ft | 440 kts | 27° |
| 2026-04-25 02:12 | 37.88226 | -75.73563 | 34908 ft | 441 kts | 27° |
| 2026-04-25 02:13 | 37.93326 | -75.69271 | 34920 ft | 440 kts | 27° |
| 2026-04-25 02:13 | 37.98427 | -75.64971 | 34917 ft | 440 kts | 27° |
| 2026-04-25 02:14 | 38.03521 | -75.60670 | 34918 ft | 439 kts | 27° |
| 2026-04-25 02:14 | 38.08588 | -75.56388 | 34919 ft | 437 kts | 26° |
| 2026-04-25 02:15 | 38.13653 | -75.52097 | 34935 ft | 437 kts | 26° |
| 2026-04-25 02:15 | 38.18703 | -75.47812 | 34925 ft | 436 kts | 26° |
| 2026-04-25 02:16 | 38.23742 | -75.43529 | 34925 ft | 435 kts | 26° |
| 2026-04-25 02:16 | 38.29071 | -75.40395 | 34956 ft | 413 kts | 4° |
| 2026-04-25 02:17 | 38.34738 | -75.39180 | 34919 ft | 412 kts | 3° |
| 2026-04-25 02:17 | 38.40378 | -75.38008 | 34926 ft | 411 kts | 3° |
| 2026-04-25 02:18 | 38.46013 | -75.36835 | 34922 ft | 410 kts | 3° |
| 2026-04-25 02:18 | 38.51596 | -75.35673 | 34923 ft | 408 kts | 3° |
| 2026-04-25 02:19 | 38.57205 | -75.34506 | 34924 ft | 408 kts | 3° |
| 2026-04-25 02:19 | 38.62807 | -75.33337 | 34913 ft | 407 kts | 3° |
| 2026-04-25 02:20 | 38.68387 | -75.32166 | 34917 ft | 406 kts | 3° |
| 2026-04-25 02:20 | 38.73964 | -75.31002 | 34917 ft | 406 kts | 2° |
| 2026-04-25 02:21 | 38.79354 | -75.28555 | 34943 ft | 424 kts | 22° |
| 2026-04-25 02:21 | 38.84425 | -75.24656 | 34922 ft | 424 kts | 22° |
| 2026-04-25 02:22 | 38.89479 | -75.20741 | 34925 ft | 424 kts | 22° |
| 2026-04-25 02:22 | 38.94524 | -75.16826 | 34924 ft | 423 kts | 22° |
| 2026-04-25 02:23 | 38.99565 | -75.12897 | 34929 ft | 424 kts | 22° |
| 2026-04-25 02:23 | 39.04589 | -75.08969 | 34926 ft | 422 kts | 22° |
| 2026-04-25 02:24 | 39.09601 | -75.05046 | 34947 ft | 422 kts | 22° |
| 2026-04-25 02:24 | 39.14581 | -75.01144 | 34948 ft | 421 kts | 22° |
| 2026-04-25 02:25 | 39.19585 | -74.97214 | 34949 ft | 421 kts | 22° |
| 2026-04-25 02:25 | 39.24584 | -74.93282 | 34945 ft | 421 kts | 23° |
| 2026-04-25 02:25 | 39.26935 | -74.90937 | 34967 ft | 432 kts | 32° |
| 2026-04-25 02:26 | 39.29167 | -74.88326 | 34968 ft | 434 kts | 33° |
| 2026-04-25 02:26 | 39.33626 | -74.83071 | 34955 ft | 434 kts | 33° |
| 2026-04-25 02:27 | 39.38079 | -74.77823 | 34956 ft | 434 kts | 33° |
| 2026-04-25 02:27 | 39.42532 | -74.72566 | 34961 ft | 433 kts | 32° |
| 2026-04-25 02:28 | 39.46989 | -74.67292 | 34974 ft | 434 kts | 32° |
| 2026-04-25 02:28 | 39.51443 | -74.62015 | 34972 ft | 434 kts | 32° |
| 2026-04-25 02:29 | 39.55890 | -74.56734 | 34974 ft | 434 kts | 32° |
| 2026-04-25 02:29 | 39.60334 | -74.51449 | 34976 ft | 433 kts | 32° |
| 2026-04-25 02:30 | 39.64744 | -74.46105 | 34787 ft | 433 kts | 32° |
| 2026-04-25 02:30 | 39.66924 | -74.43447 | 34485 ft | 425 kts | 32° |
| 2026-04-25 02:30 | 39.69072 | -74.40835 | 34011 ft | 425 kts | 32° |
| 2026-04-25 02:30 | 39.71236 | -74.38208 | 33429 ft | 425 kts | 32° |
| 2026-04-25 02:31 | 39.73395 | -74.35580 | 32838 ft | 425 kts | 32° |
| 2026-04-25 02:31 | 39.75549 | -74.32955 | 32275 ft | 424 kts | 32° |
| 2026-04-25 02:31 | 39.77703 | -74.30330 | 31701 ft | 425 kts | 32° |
| 2026-04-25 02:31 | 39.79858 | -74.27701 | 31144 ft | 425 kts | 33° |
| 2026-04-25 02:32 | 39.82012 | -74.25065 | 30584 ft | 426 kts | 33° |
| 2026-04-25 02:32 | 39.83467 | -74.23375 | 30205 ft | 421 kts | 29° |
| 2026-04-25 02:32 | 39.85760 | -74.21017 | 29641 ft | 420 kts | 28° |
| 2026-04-25 02:32 | 39.88834 | -74.17931 | 28907 ft | 423 kts | 28° |
| 2026-04-25 02:33 | 39.90409 | -74.16347 | 28523 ft | 425 kts | 28° |
| 2026-04-25 02:33 | 39.92738 | -74.13996 | 27962 ft | 422 kts | 28° |
| 2026-04-25 02:33 | 39.95057 | -74.11655 | 27401 ft | 420 kts | 28° |
| 2026-04-25 02:33 | 39.98098 | -74.08582 | 26660 ft | 416 kts | 28° |
| 2026-04-25 02:34 | 39.99640 | -74.07023 | 26294 ft | 415 kts | 28° |
| 2026-04-25 02:34 | 40.01916 | -74.04723 | 25746 ft | 413 kts | 28° |
| 2026-04-25 02:34 | 40.04179 | -74.02432 | 25231 ft | 411 kts | 28° |
| 2026-04-25 02:34 | 40.06425 | -74.00173 | 25062 ft | 405 kts | 27° |
| 2026-04-25 02:35 | 40.08683 | -73.98057 | 25001 ft | 406 kts | 26° |
| 2026-04-25 02:35 | 40.11008 | -73.95875 | 24999 ft | 407 kts | 27° |
| 2026-04-25 02:35 | 40.13276 | -73.93741 | 24996 ft | 408 kts | 27° |
| 2026-04-25 02:35 | 40.15575 | -73.91565 | 24993 ft | 408 kts | 27° |
| 2026-04-25 02:36 | 40.17873 | -73.89389 | 24992 ft | 409 kts | 27° |
| 2026-04-25 02:36 | 40.20176 | -73.87205 | 24999 ft | 409 kts | 27° |
| 2026-04-25 02:36 | 40.22475 | -73.85022 | 24996 ft | 409 kts | 27° |
| 2026-04-25 02:36 | 40.24774 | -73.82832 | 24997 ft | 409 kts | 27° |
| 2026-04-25 02:37 | 40.27072 | -73.80646 | 24998 ft | 407 kts | 27° |
| 2026-04-25 02:37 | 40.29362 | -73.78463 | 25002 ft | 407 kts | 27° |
| 2026-04-25 02:37 | 40.31653 | -73.76279 | 25001 ft | 407 kts | 27° |
| 2026-04-25 02:37 | 40.33944 | -73.74092 | 24991 ft | 407 kts | 27° |
| 2026-04-25 02:38 | 40.36231 | -73.71906 | 25018 ft | 407 kts | 27° |
| 2026-04-25 02:38 | 40.38522 | -73.69715 | 25020 ft | 407 kts | 27° |
| 2026-04-25 02:38 | 40.40808 | -73.67536 | 25019 ft | 406 kts | 26° |
| 2026-04-25 02:38 | 40.43094 | -73.65346 | 25019 ft | 406 kts | 27° |
| 2026-04-25 02:39 | 40.45371 | -73.63156 | 25019 ft | 406 kts | 27° |
| 2026-04-25 02:39 | 40.47644 | -73.60969 | 25020 ft | 405 kts | 26° |
| 2026-04-25 02:39 | 40.49918 | -73.58788 | 25019 ft | 405 kts | 26° |
| 2026-04-25 02:39 | 40.52197 | -73.56599 | 25021 ft | 405 kts | 26° |
| 2026-04-25 02:40 | 40.54437 | -73.54443 | 25019 ft | 405 kts | 26° |
| 2026-04-25 02:40 | 40.56712 | -73.52259 | 25018 ft | 405 kts | 26° |
| 2026-04-25 02:40 | 40.58982 | -73.50071 | 25020 ft | 405 kts | 26° |
| 2026-04-25 02:40 | 40.61250 | -73.47879 | 25020 ft | 405 kts | 26° |
| 2026-04-25 02:41 | 40.63519 | -73.45686 | 25020 ft | 405 kts | 26° |
| 2026-04-25 02:41 | 40.65788 | -73.43493 | 25019 ft | 404 kts | 26° |
| 2026-04-25 02:41 | 40.68054 | -73.41302 | 25019 ft | 404 kts | 26° |
| 2026-04-25 02:41 | 40.70313 | -73.39112 | 25032 ft | 403 kts | 26° |
| 2026-04-25 02:42 | 40.72571 | -73.36925 | 25030 ft | 403 kts | 26° |
| 2026-04-25 02:42 | 40.74828 | -73.34739 | 25028 ft | 402 kts | 26° |
| 2026-04-25 02:42 | 40.77083 | -73.32552 | 25027 ft | 402 kts | 26° |
| 2026-04-25 02:42 | 40.79338 | -73.30362 | 25028 ft | 403 kts | 26° |
| 2026-04-25 02:43 | 40.81536 | -73.28026 | 25031 ft | 409 kts | 31° |
| 2026-04-25 02:43 | 40.83644 | -73.25485 | 25020 ft | 411 kts | 32° |
| 2026-04-25 02:43 | 40.85742 | -73.22947 | 25018 ft | 409 kts | 32° |
| 2026-04-25 02:43 | 40.87856 | -73.20440 | 25019 ft | 407 kts | 31° |
| 2026-04-25 02:44 | 40.89971 | -73.17954 | 25016 ft | 407 kts | 31° |
| 2026-04-25 02:44 | 40.92088 | -73.15466 | 25022 ft | 407 kts | 31° |
| 2026-04-25 02:44 | 40.94205 | -73.12978 | 25021 ft | 407 kts | 31° |
| 2026-04-25 02:44 | 40.96325 | -73.10493 | 25017 ft | 407 kts | 31° |
| 2026-04-25 02:45 | 40.98443 | -73.08006 | 25030 ft | 407 kts | 31° |
| 2026-04-25 02:45 | 41.00563 | -73.05516 | 25029 ft | 407 kts | 31° |
| 2026-04-25 02:45 | 41.02679 | -73.03027 | 25028 ft | 407 kts | 31° |
| 2026-04-25 02:45 | 41.04797 | -73.00536 | 25026 ft | 407 kts | 31° |
| 2026-04-25 02:46 | 41.06920 | -72.98037 | 24713 ft | 408 kts | 31° |
| 2026-04-25 02:46 | 41.09032 | -72.95548 | 24434 ft | 404 kts | 31° |
| 2026-04-25 02:46 | 41.11140 | -72.93074 | 23843 ft | 404 kts | 31° |
| 2026-04-25 02:46 | 41.13200 | -72.90641 | 23306 ft | 399 kts | 31° |
| 2026-04-25 02:47 | 41.15263 | -72.88207 | 22768 ft | 394 kts | 31° |
| 2026-04-25 02:47 | 41.17301 | -72.85808 | 22258 ft | 390 kts | 31° |
| 2026-04-25 02:47 | 41.19319 | -72.83431 | 21752 ft | 386 kts | 31° |
| 2026-04-25 02:47 | 41.21314 | -72.81078 | 21249 ft | 382 kts | 31° |
| 2026-04-25 02:48 | 41.23292 | -72.78744 | 20756 ft | 379 kts | 31° |
| 2026-04-25 02:48 | 41.25260 | -72.76418 | 20259 ft | 377 kts | 32° |
| 2026-04-25 02:48 | 41.27212 | -72.74109 | 19644 ft | 375 kts | 32° |
| 2026-04-25 02:48 | 41.29261 | -72.71941 | 18366 ft | 369 kts | 22° |
| 2026-04-25 02:49 | 41.31539 | -72.70820 | 17045 ft | 335 kts | 0° |
| 2026-04-25 02:49 | 41.33747 | -72.71077 | 15693 ft | 311 kts | 337° |
| 2026-04-25 02:49 | 41.35612 | -72.72412 | 14313 ft | 301 kts | 325° |
| 2026-04-25 02:49 | 41.37323 | -72.73968 | 13474 ft | 290 kts | 325° |
| 2026-04-25 02:50 | 41.38966 | -72.75411 | 13160 ft | 278 kts | 326° |
| 2026-04-25 02:50 | 41.40560 | -72.76778 | 12827 ft | 268 kts | 326° |
| 2026-04-25 02:50 | 41.42101 | -72.78095 | 12497 ft | 259 kts | 326° |
| 2026-04-25 02:50 | 41.43599 | -72.79361 | 12178 ft | 251 kts | 326° |
| 2026-04-25 02:51 | 41.45064 | -72.80595 | 11876 ft | 248 kts | 326° |
| 2026-04-25 02:51 | 41.46525 | -72.81821 | 11592 ft | 249 kts | 326° |
| 2026-04-25 02:51 | 41.48001 | -72.83058 | 11277 ft | 252 kts | 327° |
| 2026-04-25 02:51 | 41.49493 | -72.84306 | 10949 ft | 254 kts | 327° |
| 2026-04-25 02:52 | 41.50996 | -72.85562 | 10613 ft | 256 kts | 327° |
| 2026-04-25 02:52 | 41.52507 | -72.86827 | 10274 ft | 256 kts | 327° |
| 2026-04-25 02:52 | 41.54029 | -72.88098 | 9942 ft | 259 kts | 327° |
| 2026-04-25 02:52 | 41.55556 | -72.89381 | 9604 ft | 260 kts | 327° |
| 2026-04-25 02:53 | 41.57091 | -72.90667 | 9259 ft | 261 kts | 327° |
| 2026-04-25 02:53 | 41.58613 | -72.91937 | 8923 ft | 262 kts | 327° |
| 2026-04-25 02:53 | 41.60165 | -72.93236 | 8582 ft | 264 kts | 327° |
| 2026-04-25 02:53 | 41.61714 | -72.94534 | 8239 ft | 262 kts | 327° |
| 2026-04-25 02:54 | 41.63259 | -72.95827 | 7905 ft | 262 kts | 327° |
| 2026-04-25 02:54 | 41.64796 | -72.97125 | 7559 ft | 261 kts | 327° |
| 2026-04-25 02:54 | 41.66331 | -72.98408 | 7221 ft | 259 kts | 328° |
| 2026-04-25 02:54 | 41.67869 | -72.99628 | 6870 ft | 255 kts | 335° |
| 2026-04-25 02:55 | 41.69573 | -73.00137 | 6579 ft | 251 kts | 359° |
| 2026-04-25 02:55 | 41.71253 | -72.99570 | 6230 ft | 252 kts | 26° |
| 2026-04-25 02:55 | 41.72584 | -72.98052 | 5907 ft | 252 kts | 45° |
| 2026-04-25 02:55 | 41.73735 | -72.96284 | 5551 ft | 252 kts | 47° |
| 2026-04-25 02:56 | 41.74871 | -72.94509 | 5213 ft | 250 kts | 47° |
| 2026-04-25 02:56 | 41.76017 | -72.92768 | 4881 ft | 248 kts | 46° |
| 2026-04-25 02:56 | 41.77172 | -72.91064 | 4564 ft | 246 kts | 46° |
| 2026-04-25 02:56 | 41.78332 | -72.89381 | 4227 ft | 245 kts | 46° |
| 2026-04-25 02:57 | 41.79483 | -72.87710 | 3891 ft | 243 kts | 46° |
| 2026-04-25 02:57 | 41.80630 | -72.86059 | 3577 ft | 239 kts | 46° |
| 2026-04-25 02:57 | 41.81786 | -72.84533 | 3278 ft | 227 kts | 44° |
| 2026-04-25 02:57 | 41.82906 | -72.83110 | 2943 ft | 217 kts | 44° |
| 2026-04-25 02:58 | 41.83974 | -72.81741 | 2668 ft | 208 kts | 45° |
| 2026-04-25 02:58 | 41.84993 | -72.80436 | 2460 ft | 197 kts | 45° |
| 2026-04-25 02:58 | 41.85964 | -72.79174 | 2182 ft | 190 kts | 46° |
| 2026-04-25 02:58 | 41.86876 | -72.77972 | 1922 ft | 179 kts | 46° |
| 2026-04-25 02:59 | 41.87747 | -72.76843 | 1693 ft | 167 kts | 46° |
| 2026-04-25 02:59 | 41.88547 | -72.75783 | 1455 ft | 157 kts | 47° |
| 2026-04-25 02:59 | 41.89303 | -72.74791 | 1255 ft | 148 kts | 46° |
| 2026-04-25 02:59 | 41.90027 | -72.73851 | 1056 ft | 143 kts | 46° |
| 2026-04-25 03:00 | 41.90737 | -72.72926 | 862 ft | 142 kts | 47° |
| 2026-04-25 03:00 | 41.91425 | -72.72001 | 702 ft | 138 kts | 47° |
| 2026-04-25 03:00 | 41.92110 | -72.71099 | 548 ft | 137 kts | 46° |
| 2026-04-25 03:00 | 41.92797 | -72.70206 | 386 ft | 137 kts | 47° |
| 2026-04-25 03:01 | 41.93483 | -72.69301 | 224 ft | 135 kts | 46° |
| 2026-04-25 03:01 | 41.94090 | -72.68497 | 210 ft | 111 kts | 43° |
| 2026-04-25 03:01 | 41.94507 | -72.67955 | 212 ft | 48 kts | 43° |
| 2026-04-25 03:01 | 41.94701 | -72.67695 | 210 ft | 38 kts | 44° |
| 2026-04-25 03:02 | 41.94886 | -72.67450 | 213 ft | 34 kts | 43° |
| 2026-04-25 03:02 | 41.95019 | -72.67269 | 218 ft | 17 kts | 58° |
| 2026-04-25 03:02 | 41.94977 | -72.67139 | 214 ft | 20 kts | 171° |
| 2026-04-25 03:02 | 41.94867 | -72.67247 | 206 ft | 22 kts | 225° |
| 2026-04-25 03:03 | 41.94752 | -72.67397 | 211 ft | 24 kts | 224° |
| 2026-04-25 03:03 | 41.94627 | -72.67558 | 207 ft | 27 kts | 225° |
| 2026-04-25 03:03 | 41.94494 | -72.67736 | 213 ft | 25 kts | 223° |
| 2026-04-25 03:03 | 41.94353 | -72.67836 | 204 ft | 25 kts | 179° |
| 2026-04-25 03:04 | 41.94178 | -72.67831 | 204 ft | 26 kts | 179° |
| 2026-04-25 03:04 | 41.93990 | -72.67827 | 204 ft | 28 kts | 179° |
| 2026-04-25 03:04 | 41.93792 | -72.67822 | 213 ft | 29 kts | 179° |
| 2026-04-25 03:05 | 41.93396 | -72.67816 | 210 ft | 26 kts | 181° |
| 2026-04-25 03:05 | 41.93266 | -72.67880 | 208 ft | 19 kts | 223° |
| 2026-04-25 03:05 | 41.93177 | -72.68007 | 211 ft | 17 kts | 232° |
| 2026-04-25 03:05 | 41.93120 | -72.68126 | 204 ft | 16 kts | 242° |
| 2026-04-25 03:06 | 41.93085 | -72.68257 | 214 ft | 11 kts | 256° |
| 2026-04-25 03:06 | 41.93064 | -72.68338 | 204 ft | 7 kts | 244° |
| 2026-04-25 03:06 | 41.93041 | -72.68336 | 212 ft | 4 kts | 129° |
| 2026-04-25 03:06 | 41.93068 | -72.68282 | 204 ft | 11 kts | 30° |
| 2026-04-25 03:07 | 41.93140 | -72.68243 | 209 ft | 12 kts | 22° |
| 2026-04-25 03:07 | 41.93231 | -72.68270 | 210 ft | 16 kts | 314° |
| 2026-04-25 03:07 | 41.93265 | -72.68408 | 204 ft | 15 kts | 257° |
| 2026-04-25 03:07 | 41.93199 | -72.68522 | 212 ft | 14 kts | 223° |
| 2026-04-25 03:08 | 41.93192 | -72.68560 | 204 ft | 3 kts | 304° |
| 2026-04-25 03:08 | 41.93216 | -72.68589 | 213 ft | 6 kts | 313° |
| 2026-04-25 03:08 | 41.93224 | -72.68601 | 204 ft | 0 kts | 312° |